Logansport, IN

8:51 AM EST on December 11, 2017 (GMT -0500)
Logansport Municipal

Weather History for KGGP - October, 2012

Change the Weather History Date:

Wednesday, October 31, 2012

  Actual Average Record
Temperature  
Mean Temperature 37 °F -  
Max Temperature 41 °F 58 °F 62 °F (2013)
Min Temperature 33 °F 42 °F 32 °F (2014)
Degree Days  
Heating Degree Days 28    
Moisture  
Dew Point 33 °F    
Average Humidity 81    
Maximum Humidity 93    
Minimum Humidity 65    
Precipitation  
Precipitation 0.00 in - - ()
Sea Level Pressure  
Sea Level Pressure 29.77 in    
Wind  
Wind Speed 10 mph ()    
Max Wind Speed 14 mph    
Max Gust Speed 23 mph    
Visibility 9.4 miles    
Events Snow    
Averages and records for this station are not official NWS values.
T = Trace of Precipitation, MM = Missing Value Source: Averaged Metar Reports

Daily Weather History Graph

Daily Weather History Graph

Search for Another Location

Airport or City:

Trip Planner

Search our weather history database for the weather conditions in past years. The results will help you decide how hot, cold, wet, or windy it might be!

Date:

Astronomy

Oct. 31, 2012 Rise Set
Actual Time 8:15 AM EDT 6:42 PM EDT
Civil Twilight 7:46 AM EDT 7:10 PM EDT
Nautical Twilight 7:14 AM EDT 7:43 PM EDT
Astronomical Twilight 6:42 AM EDT 8:14 PM EDT
Moon 7:52 PM EDT (10/31) 9:56 AM EDT (10/31)
Length of Visible Light 11h 23m
Length of Day
10h 27m
Full, 97% of the Moon is Illuminated
Oct 31
Full
Nov 6
Last Quarter
Nov 13
New
Nov 20
First Quarter
Nov 28
Full

Hourly Weather History & Observations

Time (EDT) Temp. Windchill Dew Point Humidity Pressure Visibility Wind Dir Wind Speed Gust Speed Precip Events Conditions
12:15 AM 39.2 °F 33.0 °F 37.4 °F 93% 29.71 in 10.0 mi NW 9.2 mph - N/A   Overcast
12:35 AM 39.2 °F 32.5 °F 37.4 °F 93% 29.70 in 5.0 mi NW 10.4 mph 18.4 mph N/A   Overcast
12:55 AM 39.2 °F 32.5 °F 37.4 °F 93% 29.70 in 5.0 mi NW 10.4 mph - N/A   Overcast
1:15 AM 39.2 °F 32.5 °F 37.4 °F 93% 29.70 in 10.0 mi NW 10.4 mph 19.6 mph N/A   Overcast
1:35 AM 39.2 °F 33.0 °F 35.6 °F 87% 29.70 in 10.0 mi NW 9.2 mph 19.6 mph N/A   Overcast
1:55 AM 39.2 °F 32.5 °F 35.6 °F 87% 29.70 in 10.0 mi NW 10.4 mph 18.4 mph N/A   Overcast
2:15 AM 39.2 °F 31.6 °F 35.6 °F 87% 29.69 in 10.0 mi NW 12.7 mph - N/A   Overcast
2:55 AM 37.4 °F 30.3 °F 35.6 °F 93% 29.70 in 7.0 mi NW 10.4 mph - N/A   Overcast
3:15 AM 39.2 °F 32.5 °F 35.6 °F 87% 29.70 in 7.0 mi NW 10.4 mph 17.3 mph N/A   Overcast
3:35 AM 37.4 °F 29.8 °F 35.6 °F 93% 29.70 in 10.0 mi NW 11.5 mph 17.3 mph N/A   Overcast
3:55 AM 37.4 °F 30.8 °F 35.6 °F 93% 29.70 in 5.0 mi NW 9.2 mph 17.3 mph N/A   Overcast
4:15 AM 37.4 °F 29.8 °F 35.6 °F 93% 29.70 in 7.0 mi NW 11.5 mph - N/A   Overcast
4:35 AM 37.4 °F 29.8 °F 35.6 °F 93% 29.70 in 5.0 mi WNW 11.5 mph 17.3 mph N/A   Overcast
4:55 AM 37.4 °F 29.8 °F 35.6 °F 93% 29.71 in 5.0 mi WNW 11.5 mph 16.1 mph N/A   Overcast
5:15 AM 37.4 °F 30.3 °F 35.6 °F 93% 29.71 in 5.0 mi WNW 10.4 mph - N/A   Overcast
5:35 AM 37.4 °F 30.3 °F 35.6 °F 93% 29.71 in 7.0 mi WNW 10.4 mph - N/A   Overcast
5:55 AM 37.4 °F 30.3 °F 35.6 °F 93% 29.72 in 10.0 mi WNW 10.4 mph - N/A   Overcast
6:15 AM 37.4 °F 29.3 °F 33.8 °F 87% 29.72 in 10.0 mi WNW 12.7 mph 18.4 mph N/A   Overcast
6:35 AM 37.4 °F 29.8 °F 33.8 °F 87% 29.72 in 10.0 mi WNW 11.5 mph 18.4 mph N/A   Overcast
6:55 AM 37.4 °F 30.3 °F 33.8 °F 87% 29.72 in 10.0 mi WNW 10.4 mph 18.4 mph N/A   Overcast
7:15 AM 37.4 °F 29.3 °F 33.8 °F 87% 29.72 in 10.0 mi WNW 12.7 mph - N/A   Overcast
7:35 AM 35.6 °F 28.0 °F 32.0 °F 87% 29.73 in 10.0 mi WNW 10.4 mph - N/A   Overcast
7:55 AM 35.6 °F 27.5 °F 32.0 °F 87% 29.73 in 10.0 mi WNW 11.5 mph 19.6 mph N/A   Overcast
8:15 AM 35.6 °F 27.1 °F 32.0 °F 87% 29.73 in 10.0 mi WNW 12.7 mph 23.0 mph N/A   Overcast
8:35 AM 33.8 °F 24.8 °F 32.0 °F 93% 29.74 in 10.0 mi WNW 12.7 mph - N/A   Overcast
8:55 AM 35.6 °F 28.0 °F 32.0 °F 87% 29.74 in 10.0 mi WNW 10.4 mph 17.3 mph N/A   Overcast
9:15 AM 35.6 °F 27.1 °F 32.0 °F 87% 29.75 in 10.0 mi WNW 12.7 mph 17.3 mph N/A   Overcast
9:35 AM 35.6 °F 26.6 °F 32.0 °F 87% 29.75 in 10.0 mi WNW 13.8 mph 20.7 mph N/A   Overcast
9:55 AM 35.6 °F 27.1 °F 32.0 °F 87% 29.76 in 10.0 mi WNW 12.7 mph 16.1 mph N/A Snow Light Snow
10:15 AM 35.6 °F 28.0 °F 32.0 °F 87% 29.76 in 10.0 mi WNW 10.4 mph 20.7 mph N/A   Overcast
10:35 AM 35.6 °F 27.1 °F 32.0 °F 87% 29.76 in 10.0 mi WNW 12.7 mph 23.0 mph N/A   Overcast
10:55 AM 37.4 °F 28.9 °F 32.0 °F 81% 29.76 in 10.0 mi WNW 13.8 mph 18.4 mph N/A   Overcast
11:15 AM 37.4 °F 29.8 °F 32.0 °F 81% 29.76 in 10.0 mi WNW 11.5 mph 19.6 mph N/A   Overcast
11:35 AM 37.4 °F 29.8 °F 32.0 °F 81% 29.76 in 10.0 mi WNW 11.5 mph 17.3 mph N/A   Overcast
11:55 AM 39.2 °F 32.0 °F 32.0 °F 75% 29.77 in 10.0 mi WNW 11.5 mph 18.4 mph N/A   Overcast
12:15 PM 39.2 °F 31.2 °F 32.0 °F 75% 29.77 in 10.0 mi WNW 13.8 mph 19.6 mph N/A   Overcast
12:35 PM 39.2 °F 31.6 °F 32.0 °F 75% 29.77 in 10.0 mi WNW 12.7 mph 17.3 mph N/A   Overcast
12:55 PM 39.2 °F 32.0 °F 32.0 °F 75% 29.78 in 10.0 mi WNW 11.5 mph 19.6 mph N/A   Overcast
1:15 PM 39.2 °F 33.0 °F 32.0 °F 75% 29.77 in 10.0 mi WNW 9.2 mph 18.4 mph N/A   Overcast
1:35 PM 39.2 °F 31.2 °F 32.0 °F 75% 29.78 in 10.0 mi WNW 13.8 mph 19.6 mph N/A   Overcast
1:55 PM 41.0 °F 35.2 °F 32.0 °F 70% 29.78 in 10.0 mi WNW 9.2 mph 17.3 mph N/A   Overcast
2:15 PM 39.2 °F 32.0 °F 32.0 °F 75% 29.78 in 10.0 mi WNW 11.5 mph 19.6 mph N/A   Overcast
2:35 PM 41.0 °F 34.7 °F 32.0 °F 70% 29.78 in 10.0 mi WNW 10.4 mph 19.6 mph N/A   Overcast
2:55 PM 41.0 °F 35.2 °F 32.0 °F 70% 29.78 in 10.0 mi NW 9.2 mph - N/A   Overcast
3:15 PM 41.0 °F 33.9 °F 32.0 °F 70% 29.78 in 10.0 mi WNW 12.7 mph 17.3 mph N/A   Overcast
3:55 PM 41.0 °F 33.9 °F 32.0 °F 70% 29.78 in 10.0 mi WNW 12.7 mph - N/A   Overcast
4:15 PM 41.0 °F 33.5 °F 32.0 °F 70% 29.79 in 10.0 mi WNW 13.8 mph 18.4 mph N/A   Overcast
4:35 PM 41.0 °F 33.9 °F 32.0 °F 70% 29.80 in 10.0 mi WNW 12.7 mph 20.7 mph N/A   Overcast
4:55 PM 41.0 °F 35.2 °F 32.0 °F 70% 29.80 in 10.0 mi WNW 9.2 mph 18.4 mph N/A   Overcast
5:15 PM 41.0 °F 35.8 °F 32.0 °F 70% 29.80 in 10.0 mi NW 8.1 mph - N/A   Overcast
5:35 PM 41.0 °F 35.8 °F 32.0 °F 70% 29.80 in 10.0 mi NW 8.1 mph - N/A   Overcast
5:55 PM 41.0 °F 35.8 °F 32.0 °F 70% 29.81 in 10.0 mi NW 8.1 mph 17.3 mph N/A   Overcast
6:15 PM 41.0 °F 35.2 °F 30.2 °F 65% 29.82 in 10.0 mi WNW 9.2 mph - N/A   Overcast
6:35 PM 41.0 °F 35.2 °F 32.0 °F 70% 29.82 in 10.0 mi WNW 9.2 mph - N/A   Overcast
6:55 PM 41.0 °F 36.4 °F 32.0 °F 70% 29.82 in 10.0 mi WNW 6.9 mph - N/A   Overcast
7:15 PM 41.0 °F 36.4 °F 32.0 °F 70% 29.82 in 10.0 mi WNW 6.9 mph - N/A   Overcast
7:35 PM 41.0 °F 37.1 °F 32.0 °F 70% 29.83 in 10.0 mi WNW 5.8 mph - N/A   Overcast
7:55 PM 41.0 °F 37.1 °F 32.0 °F 70% 29.83 in 10.0 mi NW 5.8 mph - N/A   Overcast
8:15 PM 41.0 °F 37.1 °F 32.0 °F 70% 29.83 in 10.0 mi WNW 5.8 mph - N/A   Overcast
8:35 PM 41.0 °F 38.0 °F 32.0 °F 70% 29.83 in 10.0 mi WNW 4.6 mph - N/A   Overcast
8:55 PM 41.0 °F 37.1 °F 32.0 °F 70% 29.83 in 10.0 mi WNW 5.8 mph - N/A   Overcast
9:15 PM 39.2 °F 34.2 °F 32.0 °F 75% 29.83 in 10.0 mi West 6.9 mph - N/A   Overcast
9:35 PM 39.2 °F 35.9 °F 32.0 °F 75% 29.83 in 10.0 mi West 4.6 mph - N/A   Overcast
9:55 PM 37.4 °F 33.8 °F 32.0 °F 81% 29.83 in 10.0 mi West 4.6 mph - N/A   Overcast
10:15 PM 39.2 °F 35.9 °F 32.0 °F 75% 29.83 in 10.0 mi West 4.6 mph - N/A   Overcast
10:35 PM 37.4 °F 32.8 °F 32.0 °F 81% 29.83 in 10.0 mi West 5.8 mph - N/A   Overcast
10:55 PM 37.4 °F 33.8 °F 32.0 °F 81% 29.83 in 10.0 mi West 4.6 mph - N/A   Overcast
11:15 PM 37.4 °F 32.8 °F 33.8 °F 87% 29.83 in 10.0 mi West 5.8 mph - N/A   Overcast
11:35 PM 37.4 °F 33.8 °F 32.0 °F 81% 29.83 in 10.0 mi West 4.6 mph - N/A   Overcast
11:55 PM 37.4 °F 32.8 °F 32.0 °F 81% 29.82 in 10.0 mi West 5.8 mph - N/A   Overcast